WetterOnline ( https://www.wetteronline.at )

Wetter aktuell Hohenpeißenberg

Aktuelles Wetter: Hohenpeißenberg (986m)

6-stündlich | Neueste Meldungen
Ortszeit Temperatur Wetter
Sa, 13.04. 2:00 11.4° C wolkig
Fr, 12.04. 20:00 13.6° C wolkig
Fr, 12.04. 14:00 15.9° C wolkenlos
Fr, 12.04. 8:00 8.3° C leicht bewölkt
Fr, 12.04. 2:00 8.9° C wolkig
Do, 11.04. 20:00 9.1° C wolkenlos
Do, 11.04. 14:00 10.0° C wolkenlos
Do, 11.04. 8:00 3.8° C wolkenlos
Ortszeit Temperatur Wetter
Sa, 13.04. 2:00 11.4° C wolkig
Sa, 13.04. 1:50 11.4° C wolkig
Sa, 13.04. 1:40 11.2° C wolkig
Sa, 13.04. 1:30 12.1° C fast wolkenlos
Sa, 13.04. 1:20 12.1° C fast wolkenlos
Sa, 13.04. 1:10 12.1° C fast wolkenlos
Sa, 13.04. 1:00 12.4° C wolkenlos
Sa, 13.04. 0:30 12.9° C fast wolkenlos
Sa, 13.04. 0:00 12.0° C leicht bewölkt
Fr, 12.04. 23:30 12.8° C leicht bewölkt
Fr, 12.04. 23:00 13.4° C leicht bewölkt
Ortszeit Relative Feuchte Sichtweite
Sa, 13.04. 2:00 77% 50 km
Fr, 12.04. 20:00 68% 35 km
Fr, 12.04. 14:00 54% 65 km
Fr, 12.04. 8:00 77% 35 km
Fr, 12.04. 2:00 73% 55 km
Do, 11.04. 20:00 71% 40 km
Do, 11.04. 14:00 62% >70 km
Do, 11.04. 8:00 87% 60 km
Ortszeit Relative Feuchte Sichtweite
Sa, 13.04. 2:00 77% 50 km
Sa, 13.04. 1:50 77% -
Sa, 13.04. 1:40 77% -
Sa, 13.04. 1:30 71% 40 km
Sa, 13.04. 1:20 71% -
Sa, 13.04. 1:10 72% -
Sa, 13.04. 1:00 67% 45 km
Sa, 13.04. 0:30 65% 40 km
Sa, 13.04. 0:00 67% 40 km
Fr, 12.04. 23:30 64% 40 km
Fr, 12.04. 23:00 62% 40 km
Ortszeit Niederschlagsmenge Niederschlagsart
Sa, 13.04. 2:00 0.0 l/m2 in 6 Std. -
Fr, 12.04. 20:00 0.0 l/m2 in 12 Std. -
Fr, 12.04. 14:00 0.0 l/m2 in 6 Std. -
Fr, 12.04. 8:00 0.0 l/m2 in 12 Std. -
Fr, 12.04. 2:00 0.0 l/m2 in 6 Std. -
Do, 11.04. 20:00 0.0 l/m2 in 12 Std. -
Do, 11.04. 14:00 0.0 l/m2 in 6 Std. -
Do, 11.04. 8:00 0.0 l/m2 in 12 Std. -
Ortszeit Niederschlagsmenge Niederschlagsart
Sa, 13.04. 2:00 0.0 l/m2 in 1 Std. -
Sa, 13.04. 1:50 keine Meldung -
Sa, 13.04. 1:40 keine Meldung -
Sa, 13.04. 1:30 0.0 l/m2 in 30 Min -
Sa, 13.04. 1:20 keine Meldung -
Sa, 13.04. 1:10 keine Meldung -
Sa, 13.04. 1:00 0.0 l/m2 in 1 Std. -
Sa, 13.04. 0:30 0.0 l/m2 in 30 Min -
Sa, 13.04. 0:00 0.0 l/m2 in 1 Std. -
Fr, 12.04. 23:30 0.0 l/m2 in 30 Min -
Fr, 12.04. 23:00 0.0 l/m2 in 1 Std. -
Ortszeit Stärke Spitze Richtung
km/h Bft. km/h Grad Sektor
Sa, 13.04. 2:00 9 2 15 180° S
Fr, 12.04. 20:00 9 2 19 10° N
Fr, 12.04. 14:00 7 2 18 330° NW
Fr, 12.04. 8:00 4 1 18 40° NO
Fr, 12.04. 2:00 11 2 22 100° O
Do, 11.04. 20:00 11 2 22 50° NO
Do, 11.04. 14:00 9 2 19 10° N
Do, 11.04. 8:00 9 2 24 100° O
Ortszeit Stärke Spitze Richtung
km/h Bft. km/h Grad Sektor
Sa, 13.04. 2:00 9 2 15 180° S
Sa, 13.04. 1:50 9 2 - 180° S
Sa, 13.04. 1:40 7 2 - 200° S
Sa, 13.04. 1:30 7 2 11 190° S
Sa, 13.04. 1:20 7 2 - 190° S
Sa, 13.04. 1:10 7 2 - 200° S
Sa, 13.04. 1:00 7 2 7 180° S
Sa, 13.04. 0:30 7 2 7 160° S
Sa, 13.04. 0:00 7 2 7 160° S
Fr, 12.04. 23:30 6 1 6 160° S
Fr, 12.04. 23:00 4 1 7 150° SO
Ortszeit Untergrenze Bedeckung Gattung
total tief tief mittel hoch
Sa, 13.04. 2:00 6900 m 7/8 2/8 - - -
Fr, 12.04. 20:00 9000 m 8/8 0/8 - - -
Fr, 12.04. 14:00 - 0/8 0/8 - - -
Fr, 12.04. 8:00 9000 m 4/8 0/8 - - -
Fr, 12.04. 2:00 10500 m 7/8 0/8 - - -
Do, 11.04. 20:00 - 0/8 0/8 - - -
Do, 11.04. 14:00 - 0/8 0/8 - - -
Do, 11.04. 8:00 - 0/8 0/8 - - -
Ortszeit Bedeckungsgrad in Achtel und Wolkenuntergrenze
Sa, 13.04. 2:00 2(6900m) 5(8400m) 7(9000m)
Sa, 13.04. 1:50 2(6900m) 5(8400m) 7(9000m)
Sa, 13.04. 1:40 5
Sa, 13.04. 1:30 1(9000m)
Sa, 13.04. 1:20 1(9000m)
Sa, 13.04. 1:10 1
Sa, 13.04. 1:00 keine Wolken
Sa, 13.04. 0:30 1(10500m)
Sa, 13.04. 0:00 4(9000m)
Fr, 12.04. 23:30 5(9000m)
Fr, 12.04. 23:00 4(10500m)
Ortszeit Stationsdruck (hPa) Tendenz (hPa in 3 Std.)
Sa, 13.04. 2:00 917 - 0,9
Fr, 12.04. 20:00 917 - 0,5
Fr, 12.04. 14:00 919 - 0,4
Fr, 12.04. 8:00 919 + 0,3
Fr, 12.04. 2:00 919 - 0,6
Do, 11.04. 20:00 919 + 0,2
Do, 11.04. 14:00 919 + 0,5
Do, 11.04. 8:00 917 + 0,5
Ortszeit Stationsdruck (hPa) Tendenz (hPa in 3 Std.)
Sa, 13.04. 2:00 917 - 0,9
Sa, 13.04. 1:50 917 keine Meldung
Sa, 13.04. 1:40 917 keine Meldung
Sa, 13.04. 1:30 918 - 0,5
Sa, 13.04. 1:20 918 keine Meldung
Sa, 13.04. 1:10 918 keine Meldung
Sa, 13.04. 1:00 918 - 0,5
Sa, 13.04. 0:30 918 - 0,2
Sa, 13.04. 0:00 918 + 0,2
Fr, 12.04. 23:30 918 + 0,6
Fr, 12.04. 23:00 918 + 0,8
Ortszeit Schneehöhe (cm)
Sa, 13.04. 2:00 0
Fr, 12.04. 20:00 0
Fr, 12.04. 14:00 0
Fr, 12.04. 8:00 0
Fr, 12.04. 2:00 0
Do, 11.04. 20:00 0
Do, 11.04. 14:00 0
Do, 11.04. 8:00 0
Ortszeit Schneehöhe (cm)
Sa, 13.04. 2:00 0
Sa, 13.04. 1:50 0
Sa, 13.04. 1:40 -
Sa, 13.04. 1:30 0
Sa, 13.04. 1:20 0
Sa, 13.04. 1:10 -
Sa, 13.04. 1:00 0
Sa, 13.04. 0:30 0
Sa, 13.04. 0:00 0
Fr, 12.04. 23:30 0
Fr, 12.04. 23:00 0
Link zu dieser Seite / Seite empfehlen

Das Wetter in ...